Terminal Aerodrome Forecast
Issued by NWS Atlanta, GA

Home | Current Version | Previous Version | Text Only | Print | Product List | Glossary On
Versions: 1 2 3 4 5 6 7 8 9 10 11 12 13 14 15 16 17
485
FTUS42 KFFC 252330
TAFCSG
TAF
KCSG 252330Z 2600/2624 03003KT P6SM OVC060
     FM260800 10004KT P6SM OVC015
     FM261000 12004KT 6SM SHRA OVC010
     FM261300 04005KT 4SM SHRA OVC009
     FM261600 04005KT P6SM VCSH SCT009 BKN012
     FM261800 01005KT P6SM OVC025
     FM261900 01005KT P6SM OVC035=

USA.gov is the U.S. government's official web portal to all federal, state and local government web resources and services.